< < Back
Terminal Aerodrome Forecast


Current Version              Previous Versions:   1  2  3  4  5  6  7  8  9  

Terminal Aerodrome Forecast

153
FTUS42 KJAX 300540
TAFGNV
TAF
KGNV 300540Z 3006/3106 25005KT P6SM SCT100 BKN250
     FM301200 27008KT P6SM SCT010 BKN040
      TEMPO 3012/3015 SCT008 BKN015
     FM301500 33012G18KT P6SM SCT020 BKN250
     FM301800 33010KT P6SM FEW250=



Latest METAR

408
SAUS70 KWBC 310400 RRC
MTRGNV
METAR KGNV 310353Z AUTO 32003KT 10SM CLR 06/02 A3028 RMK AO2 SLP254
T00560017


USA.gov is the U.S. government's official web portal to all federal, state and local government web resources and services.